Weather at Barmera Airport

Public forecast

Using degrees Celsius for public forecast. Weather courtesy of forecast.io.

Closest aviation weather report (METAR) to Barmera Airport

Closest report is Mildura Airport, 80.8 nm (149.7 km) E. Retrieved 2021/01/20 15:00 UTC (38 minutes ago):

YMIA 201500Z AUTO 00000KT 9999 // NCD 17/M03 Q1013

Closest aviation forecast (TAF) to Barmera Airport

Closest forecast is Adelaide International Airport, 103.8 nm (192.3 km) WSW. Retrieved 2021/01/20 15:36 UTC (2 minutes ago):

TAF YPAD 201404Z 2015/2118 13008KT CAVOK FM201700 VRB03KT CAVOK FM202300 23006KT CAVOK FM210200 22012KT CAVOK FM210900 16012KT CAVOK FM211200 16005KT CAVOK